Time;durP1;ratioP1;P1;durP2;ratioP2;P2;SDS_P1;SDS_P2;PMS_P1;PMS_P2;Temp;Humidity;BMP_temperature;BMP_pressure;BME280_temperature;BME280_humidity;BME280_pressure;Samples;Min_cycle;Max_cycle;Signal;HPM_P1;HPM_P2
2021/09/05 00:00:10;;;;;;;17.13;14.47;;;;;;;14.16;85.70;101177.81;680612;28;2146;-84
2021/09/05 00:00:35;;;;;;;18.33;14.43;;;;;;;14.13;85.92;101180.50;680327;29;1713;-84
2021/09/05 00:00:55;;;;;;;17.73;14.10;;;;;;;14.09;86.18;101173.53;681352;28;1597;-84
2021/09/05 00:01:15;;;;;;;17.63;14.20;;;;;;;14.07;86.65;101185.84;677667;29;4463;-84
2021/09/05 00:01:36;;;;;;;16.60;14.20;;;;;;;14.03;86.26;101177.09;678752;29;1244;-84
2021/09/05 00:01:56;;;;;;;17.80;14.63;;;;;;;14.00;86.30;101184.13;675668;29;1022;-84
2021/09/05 00:02:17;;;;;;;18.60;14.40;;;;;;;14.00;86.31;101178.88;677868;29;3276;-84
2021/09/05 00:02:38;;;;;;;17.55;14.23;;;;;;;13.96;86.42;101178.91;675498;29;1003;-83
2021/09/05 00:02:59;;;;;;;18.57;14.87;;;;;;;13.93;86.40;101194.72;675328;29;3382;-84
2021/09/05 00:03:19;;;;;;;19.13;14.97;;;;;;;13.91;86.94;101201.72;678238;29;1181;-84
2021/09/05 00:03:39;;;;;;;19.00;15.10;;;;;;;13.88;87.02;101172.88;678697;29;1516;-84
2021/09/05 00:04:03;;;;;;;18.63;14.93;;;;;;;13.85;87.03;101174.66;675822;29;1318;-84
2021/09/05 00:04:24;;;;;;;17.45;14.25;;;;;;;13.82;86.94;101172.94;676483;29;4311;-83
2021/09/05 00:04:45;;;;;;;17.05;13.85;;;;;;;13.81;87.33;101184.34;681296;29;1535;-84
2021/09/05 00:05:06;;;;;;;17.05;14.70;;;;;;;13.79;87.27;101176.47;676649;29;1440;-83
2021/09/05 00:05:28;;;;;;;17.35;14.90;;;;;;;13.77;87.41;101172.09;675046;29;4006;-83
2021/09/05 00:05:49;;;;;;;17.65;14.55;;;;;;;13.75;87.88;101176.53;675631;29;1402;-84
2021/09/05 00:06:09;;;;;;;19.60;15.30;;;;;;;13.71;88.38;101177.44;675367;29;1608;-83
2021/09/05 00:06:30;;;;;;;19.33;15.30;;;;;;;13.69;88.40;101179.19;675021;29;1456;-83
2021/09/05 00:06:50;;;;;;;20.70;15.15;;;;;;;13.68;88.03;101174.81;675690;29;1801;-83
2021/09/05 00:07:11;;;;;;;18.67;14.73;;;;;;;13.65;88.15;101177.47;677919;29;4331;-83
2021/09/05 00:07:31;;;;;;;17.92;15.13;;;;;;;13.64;88.74;101187.13;675052;29;1716;-84
2021/09/05 00:07:52;;;;;;;17.63;14.60;;;;;;;13.62;88.54;101179.25;675332;29;2497;-83
2021/09/05 00:08:12;;;;;;;18.65;14.65;;;;;;;13.59;88.53;101195.03;670782;29;1310;-84
2021/09/05 00:08:33;;;;;;;19.27;15.30;;;;;;;13.60;88.51;101169.66;670262;29;1674;-84
2021/09/05 00:08:53;;;;;;;19.10;15.15;;;;;;;13.63;88.21;101178.34;670609;29;1607;-83
2021/09/05 00:09:13;;;;;;;19.00;15.10;;;;;;;13.62;88.46;101176.63;674733;29;1350;-83
2021/09/05 00:09:35;;;;;;;19.05;14.95;;;;;;;13.62;88.21;101196.75;676482;29;990;-84
2021/09/05 00:09:56;;;;;;;17.80;14.45;;;;;;;13.65;88.31;101193.25;678144;29;1422;-83
2021/09/05 00:10:19;;;;;;;18.67;14.30;;;;;;;13.66;88.30;101197.63;672819;29;4379;-83
2021/09/05 00:10:40;;;;;;;17.55;14.20;;;;;;;13.66;88.25;101184.47;671227;29;2328;-83
2021/09/05 00:11:00;;;;;;;17.53;14.37;;;;;;;13.68;87.99;101182.69;673435;29;2009;-84
2021/09/05 00:11:21;;;;;;;19.17;14.60;;;;;;;13.69;88.05;101194.94;677601;29;1487;-83
2021/09/05 00:11:41;;;;;;;18.90;14.15;;;;;;;13.76;86.83;101192.28;678622;29;1258;-84
2021/09/05 00:12:03;;;;;;;15.63;13.40;;;;;;;13.84;86.42;101199.19;674967;29;1217;-84
2021/09/05 00:12:25;;;;;;;17.67;13.93;;;;;;;13.83;86.22;101182.56;675810;29;1219;-84
2021/09/05 00:12:48;;;;;;;16.80;13.52;;;;;;;13.89;85.97;101182.50;672614;29;1548;-84
2021/09/05 00:13:09;;;;;;;15.75;13.55;;;;;;;13.94;85.59;101193.84;674224;29;1402;-84
2021/09/05 00:13:32;;;;;;;17.00;14.00;;;;;;;13.97;85.99;101179.81;675128;29;4767;-83
2021/09/05 00:13:52;;;;;;;16.77;13.98;;;;;;;13.94;86.42;101185.97;675638;29;3004;-84
2021/09/05 00:14:13;;;;;;;17.40;14.40;;;;;;;13.92;86.49;101171.09;670657;29;1656;-84
2021/09/05 00:14:33;;;;;;;18.70;14.82;;;;;;;13.92;86.65;101182.47;672720;29;1253;-84
2021/09/05 00:14:54;;;;;;;18.70;14.20;;;;;;;13.94;86.17;101193.84;675872;29;1584;-84
2021/09/05 00:15:15;;;;;;;15.70;13.20;;;;;;;13.92;85.98;101168.47;676942;29;1072;-84
2021/09/05 00:15:36;;;;;;;16.50;13.57;;;;;;;13.93;86.06;101172.84;675741;29;1402;-84
2021/09/05 00:15:56;;;;;;;16.63;13.57;;;;;;;13.90;86.71;101181.63;678896;29;1333;-84
2021/09/05 00:16:17;;;;;;;17.13;13.80;;;;;;;13.90;86.60;101193.88;672621;29;4456;-84
2021/09/05 00:16:37;;;;;;;16.88;13.88;;;;;;;13.91;86.00;101191.22;673541;29;2787;-84
2021/09/05 00:16:57;;;;;;;16.57;13.70;;;;;;;13.90;86.23;101179.00;670347;29;1782;-84
2021/09/05 00:17:18;;;;;;;17.08;14.40;;;;;;;13.87;87.15;101184.25;670266;29;2444;-84
2021/09/05 00:17:41;;;;;;;19.23;13.65;;;;;;;13.89;86.08;101198.28;673733;29;895;-84
2021/09/05 00:18:02;;;;;;;19.30;13.50;;;;;;;13.89;86.16;101166.72;677257;28;1790;-83
2021/09/05 00:18:22;;;;;;;17.73;14.07;;;;;;;13.88;86.36;101190.41;678614;29;1143;-84
2021/09/05 00:18:43;;;;;;;17.65;14.20;;;;;;;13.85;86.48;101196.56;678585;29;1574;-83
2021/09/05 00:19:03;;;;;;;18.15;14.55;;;;;;;13.86;86.44;101172.03;678223;29;1417;-84
2021/09/05 00:19:24;;;;;;;17.63;14.20;;;;;;;13.94;86.18;101179.81;677635;29;4364;-83
2021/09/05 00:19:44;;;;;;;17.83;13.87;;;;;;;13.99;85.74;101179.78;675950;29;2462;-84
2021/09/05 00:20:06;;;;;;;19.50;14.60;;;;;;;13.96;85.92;101194.69;673777;29;1175;-84
2021/09/05 00:20:26;;;;;;;19.40;15.07;;;;;;;13.93;86.27;101188.59;678096;29;1417;-84
2021/09/05 00:20:49;;;;;;;19.10;14.87;;;;;;;13.89;86.36;101181.63;670547;29;1479;-84
2021/09/05 00:21:10;;;;;;;19.95;15.48;;;;;;;13.88;86.95;101164.97;670343;29;1331;-84
2021/09/05 00:21:30;;;;;;;19.40;15.70;;;;;;;13.83;86.91;101200.97;675991;29;1382;-84
2021/09/05 00:21:51;;;;;;;18.88;15.90;;;;;;;13.81;87.35;101173.81;675667;29;1586;-83
2021/09/05 00:22:12;;;;;;;19.50;15.10;;;;;;;13.73;87.62;101167.75;677359;29;4367;-84
2021/09/05 00:22:33;;;;;;;19.48;15.68;;;;;;;13.73;87.55;101175.66;681081;29;2247;-83
2021/09/05 00:22:54;;;;;;;19.75;15.80;;;;;;;13.71;87.40;101180.94;678509;29;1315;-84
2021/09/05 00:23:14;;;;;;;18.48;15.57;;;;;;;13.69;87.74;101211.56;675764;29;1347;-84
2021/09/05 00:23:35;;;;;;;18.47;15.63;;;;;;;13.67;88.25;101173.09;673686;29;1444;-83
2021/09/05 00:23:55;;;;;;;18.75;16.10;;;;;;;13.65;88.06;101198.50;673541;29;1296;-84
2021/09/05 00:24:16;;;;;;;19.00;15.93;;;;;;;13.63;88.01;101196.75;675562;29;1178;-84
2021/09/05 00:24:36;;;;;;;18.88;15.82;;;;;;;13.62;87.80;101184.50;674422;29;1237;-84
2021/09/05 00:24:57;;;;;;;20.08;15.52;;;;;;;13.63;87.98;101196.75;675651;29;3260;-84
2021/09/05 00:25:17;;;;;;;19.60;15.77;;;;;;;13.65;88.21;101172.22;674741;29;4459;-84
2021/09/05 00:25:38;;;;;;;19.35;16.00;;;;;;;13.62;88.26;101178.38;668296;29;1460;-83
2021/09/05 00:25:58;;;;;;;20.20;16.73;;;;;;;13.58;88.46;101193.31;670565;29;1768;-83
2021/09/05 00:26:19;;;;;;;20.05;16.52;;;;;;;13.56;88.42;101175.81;671087;29;1598;-84
2021/09/05 00:26:42;;;;;;;20.38;16.48;;;;;;;13.54;88.23;101191.59;673693;29;1379;-84
2021/09/05 00:27:03;;;;;;;20.60;16.65;;;;;;;13.56;88.36;101174.03;673171;29;1621;-84
2021/09/05 00:27:24;;;;;;;19.48;16.00;;;;;;;13.56;88.28;101176.69;675478;29;1370;-84
2021/09/05 00:27:44;;;;;;;19.08;15.73;;;;;;;13.56;88.13;101184.56;672975;29;2198;-84
2021/09/05 00:28:05;;;;;;;22.07;17.00;;;;;;;13.55;88.41;101182.81;670490;29;4460;-84
2021/09/05 00:28:26;;;;;;;20.23;16.80;;;;;;;13.53;88.27;101181.97;673951;29;4431;-84
2021/09/05 00:28:46;;;;;;;19.80;16.85;;;;;;;13.53;88.25;101184.59;676161;29;1110;-83
2021/09/05 00:29:09;;;;;;;19.40;15.87;;;;;;;13.54;88.42;101169.69;675418;29;1273;-84
2021/09/05 00:29:30;;;;;;;19.20;15.65;;;;;;;13.53;88.54;101192.47;672994;29;1840;-84
2021/09/05 00:29:50;;;;;;;19.50;16.15;;;;;;;13.53;88.28;101176.72;672223;29;1273;-84
2021/09/05 00:30:11;;;;;;;21.35;16.60;;;;;;;13.54;88.43;101170.56;671740;29;1320;-84
2021/09/05 00:30:32;;;;;;;21.38;16.08;;;;;;;13.54;88.23;101198.59;673373;29;4063;-84
2021/09/05 00:30:52;;;;;;;20.57;16.10;;;;;;;13.59;88.12;101167.91;676284;29;1885;-84
2021/09/05 00:31:13;;;;;;;18.92;15.93;;;;;;;13.60;88.08;101181.00;674107;29;4539;-84
2021/09/05 00:31:34;;;;;;;19.33;15.47;;;;;;;13.63;87.03;101175.72;673232;29;1307;-84
2021/09/05 00:31:54;;;;;;;20.40;15.57;;;;;;;13.68;86.54;101194.09;675480;29;1386;-84
2021/09/05 00:32:15;;;;;;;18.38;15.30;;;;;;;13.75;86.51;101173.91;673386;29;1207;-84
2021/09/05 00:32:35;;;;;;;17.90;15.30;;;;;;;13.75;86.47;101174.75;672761;29;1231;-84
2021/09/05 00:32:56;;;;;;;18.27;15.18;;;;;;;13.70;86.65;101191.44;672168;29;1317;-84
2021/09/05 00:33:17;;;;;;;17.73;15.13;;;;;;;13.71;86.71;101186.19;673474;29;1219;-84
2021/09/05 00:33:41;;;;;;;18.98;15.63;;;;;;;13.75;86.63;101173.91;673457;29;2041;-84
2021/09/05 00:34:03;;;;;;;17.60;15.18;;;;;;;13.70;87.04;101200.19;670242;29;1430;-84
2021/09/05 00:34:23;;;;;;;18.17;15.50;;;;;;;13.71;87.08;101178.28;670746;29;4622;-84
2021/09/05 00:34:47;;;;;;;19.38;15.90;;;;;;;13.70;87.24;101186.19;670880;29;2124;-84
2021/09/05 00:35:11;;;;;;;20.48;15.95;;;;;;;13.70;87.84;101171.28;670139;29;1335;-84
2021/09/05 00:35:32;;;;;;;18.77;15.98;;;;;;;13.70;87.32;101176.53;669744;29;2493;-84
2021/09/05 00:35:53;;;;;;;19.17;15.80;;;;;;;13.68;87.05;101178.34;673623;29;1566;-84
2021/09/05 00:36:17;;;;;;;19.08;15.90;;;;;;;13.70;87.08;101186.19;674162;29;1430;-84
2021/09/05 00:36:40;;;;;;;19.00;15.35;;;;;;;13.70;86.93;101178.31;672749;29;2722;-84
2021/09/05 00:37:01;;;;;;;18.52;15.65;;;;;;;13.69;87.13;101182.69;673314;29;1660;-84
2021/09/05 00:37:21;;;;;;;18.10;14.95;;;;;;;13.71;87.09;101187.94;673213;29;4330;-84
2021/09/05 00:37:43;;;;;;;17.23;14.37;;;;;;;13.76;86.60;101181.75;675983;29;1206;-84
2021/09/05 00:38:03;;;;;;;18.42;14.65;;;;;;;13.79;86.39;101171.22;677755;29;1266;-84
2021/09/05 00:38:24;;;;;;;17.40;15.07;;;;;;;13.79;86.65;101180.88;678585;29;1405;-83
2021/09/05 00:38:44;;;;;;;18.52;15.02;;;;;;;13.75;86.65;101185.25;677632;29;1808;-84
2021/09/05 00:39:06;;;;;;;19.58;15.10;;;;;;;13.74;86.50;101180.03;678255;29;3412;-84
2021/09/05 00:39:26;;;;;;;18.75;14.88;;;;;;;13.75;86.35;101176.53;680831;28;3457;-84
2021/09/05 00:39:47;;;;;;;17.52;14.65;;;;;;;13.78;86.26;101176.47;678234;29;1501;-84
2021/09/05 00:40:08;;;;;;;17.10;14.47;;;;;;;13.82;85.73;101177.31;678365;29;1151;-84
2021/09/05 00:40:29;;;;;;;18.20;14.70;;;;;;;13.82;86.73;101174.69;672524;29;4324;-84
2021/09/05 00:40:49;;;;;;;18.40;14.93;;;;;;;13.78;86.80;101173.84;671253;29;1270;-84
2021/09/05 00:41:10;;;;;;;18.05;15.13;;;;;;;13.78;86.92;101179.13;670695;29;1780;-84
2021/09/05 00:41:30;;;;;;;18.50;15.00;;;;;;;13.77;86.70;101177.34;673580;29;1810;-84
2021/09/05 00:41:51;;;;;;;18.38;14.88;;;;;;;13.79;86.42;101178.22;673557;29;3717;-83
2021/09/05 00:42:20;;;;;;;18.77;14.98;;;;;;;13.74;86.95;101175.63;672428;29;3620;-84
2021/09/05 00:42:40;;;;;;;19.52;14.70;;;;;;;13.72;86.87;101179.16;672543;29;1617;-84
2021/09/05 00:43:01;;;;;;;18.53;14.63;;;;;;;13.71;86.69;101177.44;675125;29;1400;-84
2021/09/05 00:43:21;;;;;;;18.50;14.67;;;;;;;13.70;86.41;101184.44;677071;29;4373;-84
2021/09/05 00:44:02;;;;;;;19.20;14.57;;;;;;;13.68;86.86;101177.44;680990;29;1339;-84
2021/09/05 00:44:22;;;;;;;18.25;15.23;;;;;;;13.68;86.55;101169.56;681136;29;1439;-83
2021/09/05 00:44:43;;;;;;;18.60;14.90;;;;;;;13.70;87.11;101180.94;677727;29;2921;-84
2021/09/05 00:45:06;;;;;;;18.13;14.95;;;;;;;13.63;87.32;101175.72;675372;29;2043;-84
2021/09/05 00:45:26;;;;;;;18.98;14.80;;;;;;;13.62;87.18;101174.00;680837;28;1502;-84
2021/09/05 00:45:47;;;;;;;19.67;15.03;;;;;;;13.66;87.23;101179.22;679315;28;1687;-84
2021/09/05 00:46:07;;;;;;;18.13;14.70;;;;;;;13.67;87.40;101179.22;680000;29;1271;-84
2021/09/05 00:46:32;;;;;;;18.47;15.20;;;;;;;13.66;87.26;101179.22;680357;29;4370;-83
2021/09/05 00:46:52;;;;;;;17.95;14.98;;;;;;;13.67;86.46;101178.34;681039;28;1367;-83
2021/09/05 00:47:13;;;;;;;18.08;14.57;;;;;;;13.70;86.51;101175.69;675593;29;1207;-83
2021/09/05 00:47:33;;;;;;;19.07;14.63;;;;;;;13.74;85.96;101173.00;680420;28;1775;-84
2021/09/05 00:47:54;;;;;;;18.70;14.85;;;;;;;13.69;87.14;101173.94;677972;29;1962;-84
2021/09/05 00:48:14;;;;;;;19.30;15.03;;;;;;;13.63;87.17;101180.97;672646;29;2498;-84
2021/09/05 00:48:34;;;;;;;18.77;15.23;;;;;;;13.66;86.41;101179.22;673320;29;1470;-83
2021/09/05 00:48:55;;;;;;;17.50;14.97;;;;;;;13.68;86.49;101182.69;673179;29;1786;-84
2021/09/05 00:49:15;;;;;;;18.98;15.05;;;;;;;13.70;86.17;101176.53;671237;29;4371;-84
2021/09/05 00:49:36;;;;;;;19.07;14.63;;;;;;;13.68;87.21;101182.69;671797;29;1731;-84
2021/09/05 00:49:56;;;;;;;17.93;14.77;;;;;;;13.60;86.98;101175.75;675586;29;1218;-84
2021/09/05 00:50:17;;;;;;;18.13;14.50;;;;;;;13.61;86.67;101172.25;678228;29;1218;-83
2021/09/05 00:50:38;;;;;;;19.17;14.20;;;;;;;13.61;87.41;101182.75;673012;29;3969;-84
2021/09/05 00:50:59;;;;;;;19.88;15.00;;;;;;;13.56;87.49;101179.31;673144;29;1405;-83
2021/09/05 00:51:22;;;;;;;19.08;14.65;;;;;;;13.55;87.12;101174.91;677488;29;1984;-84
2021/09/05 00:51:43;;;;;;;17.13;14.30;;;;;;;13.53;87.04;101168.81;675110;29;1661;-84
2021/09/05 00:52:11;;;;;;;17.30;13.90;;;;;;;13.52;87.23;101174.97;676512;29;1488;-84
2021/09/05 00:52:32;;;;;;;17.23;14.35;;;;;;;13.51;87.56;101175.84;676408;29;6133;-84
2021/09/05 00:52:55;;;;;;;17.02;14.38;;;;;;;13.51;88.00;101177.59;678697;29;1393;-83
2021/09/05 00:53:16;;;;;;;18.60;14.55;;;;;;;13.53;86.93;101173.22;678758;28;1274;-84
2021/09/05 00:53:37;;;;;;;18.77;14.10;;;;;;;13.59;86.49;101179.25;675791;28;1765;-84
2021/09/05 00:53:58;;;;;;;16.90;13.93;;;;;;;13.56;86.75;101174.03;675926;29;2717;-84
2021/09/05 00:54:19;;;;;;;17.70;15.07;;;;;;;13.55;86.84;101181.94;674101;29;1695;-84
2021/09/05 00:54:42;;;;;;;18.00;14.88;;;;;;;13.55;86.49;101179.31;675608;29;1348;-84
2021/09/05 00:55:03;;;;;;;18.60;14.50;;;;;;;13.53;87.39;101174.09;678471;29;1349;-84
2021/09/05 00:55:24;;;;;;;17.67;14.80;;;;;;;13.51;87.39;101172.34;677586;29;4397;-84
2021/09/05 00:55:51;;;;;;;19.30;15.27;;;;;;;13.50;87.36;101175.84;680189;29;1584;-84
2021/09/05 00:56:13;;;;;;;19.67;14.98;;;;;;;13.51;86.58;101181.09;677549;29;2516;-83
2021/09/05 00:56:41;;;;;;;17.85;15.05;;;;;;;13.52;86.89;101176.72;677799;29;1503;-84
2021/09/05 00:57:03;;;;;;;16.90;14.02;;;;;;;13.44;87.14;101175.03;672801;29;1548;-83
2021/09/05 00:57:29;;;;;;;16.83;14.13;;;;;;;13.40;87.35;101175.06;670384;29;1238;-84
2021/09/05 00:57:51;;;;;;;17.55;13.80;;;;;;;13.47;86.50;101181.13;675592;29;1050;-84
2021/09/05 00:58:14;;;;;;;16.63;13.63;;;;;;;13.53;86.69;101188.97;677942;29;4401;-84
2021/09/05 00:58:38;;;;;;;19.20;14.65;;;;;;;13.50;87.10;101175.84;675920;29;1341;-83
2021/09/05 00:59:12;;;;;;;18.27;14.02;;;;;;;13.52;86.44;101179.34;674734;29;3392;-83
2021/09/05 00:59:33;;;;;;;18.33;14.50;;;;;;;13.54;87.07;101174.94;675871;29;1388;-83
2021/09/05 00:59:56;;;;;;;17.10;13.95;;;;;;;13.52;86.86;101177.59;673437;29;1418;-83
2021/09/05 01:00:19;;;;;;;17.90;13.70;;;;;;;13.54;86.40;101177.56;673032;29;1790;-83
2021/09/05 01:00:40;;;;;;;18.05;13.70;;;;;;;13.63;85.70;101170.47;672545;29;1458;-84
2021/09/05 01:01:00;;;;;;;18.00;13.43;;;;;;;13.65;85.64;101174.84;672729;29;1432;-84
2021/09/05 01:01:23;;;;;;;18.63;13.82;;;;;;;13.63;86.28;101175.72;675554;29;4380;-83
2021/09/05 01:01:44;;;;;;;16.10;13.10;;;;;;;13.68;85.14;101208.97;678108;29;3544;-84
2021/09/05 01:02:05;;;;;;;17.98;13.93;;;;;;;13.81;84.72;101173.81;675264;29;3956;-84
2021/09/05 01:02:27;;;;;;;17.98;13.50;;;;;;;13.87;85.37;101173.75;674825;29;1679;-84
2021/09/05 01:02:49;;;;;;;18.13;13.63;;;;;;;13.84;85.86;101180.81;678394;29;1275;-84
2021/09/05 01:03:10;;;;;;;16.92;13.60;;;;;;;13.75;85.70;101179.16;674438;29;1012;-83
2021/09/05 01:03:31;;;;;;;16.33;13.60;;;;;;;13.78;85.36;101192.25;675106;29;1308;-84
2021/09/05 01:03:55;;;;;;;16.38;13.55;;;;;;;13.81;85.43;101181.69;671929;29;1400;-84
2021/09/05 01:04:17;;;;;;;15.85;13.43;;;;;;;13.79;85.18;101179.09;672828;29;5382;-84
2021/09/05 01:04:40;;;;;;;17.45;13.70;;;;;;;13.74;85.41;101180.88;673060;29;1799;-84
2021/09/05 01:05:02;;;;;;;16.30;12.85;;;;;;;13.77;84.85;101172.97;675094;29;1656;-84
2021/09/05 01:05:23;;;;;;;16.35;12.90;;;;;;;13.80;85.10;101179.94;673897;29;4351;-83
2021/09/05 01:05:45;;;;;;;16.85;13.30;;;;;;;13.78;85.22;101177.34;673895;29;1686;-84
2021/09/05 01:06:05;;;;;;;17.13;13.13;;;;;;;13.79;85.22;101176.47;674982;29;1305;-83
2021/09/05 01:06:26;;;;;;;17.47;13.30;;;;;;;13.79;84.96;101176.47;676518;29;2083;-84
2021/09/05 01:06:47;;;;;;;16.30;12.90;;;;;;;13.79;85.13;101186.97;681395;28;1221;-84
2021/09/05 01:07:08;;;;;;;17.73;13.70;;;;;;;13.75;86.15;101184.41;679025;29;1252;-84
2021/09/05 01:07:31;;;;;;;16.77;13.60;;;;;;;13.71;85.53;101180.06;677736;29;5491;-84
2021/09/05 01:07:51;;;;;;;16.88;13.48;;;;;;;13.65;86.27;101178.34;677016;29;3478;-84
2021/09/05 01:08:13;;;;;;;17.67;13.57;;;;;;;13.60;86.33;101181.00;680050;29;1490;-84
2021/09/05 01:08:34;;;;;;;17.83;13.68;;;;;;;13.56;86.64;101176.69;680050;29;1124;-83
2021/09/05 01:08:57;;;;;;;16.02;13.70;;;;;;;13.53;86.47;101179.34;680556;29;1470;-83
2021/09/05 01:09:19;;;;;;;16.70;13.70;;;;;;;13.49;86.74;101190.75;678577;29;1647;-84
2021/09/05 01:09:41;;;;;;;16.40;13.20;;;;;;;13.53;85.91;101184.59;675703;29;1657;-84
2021/09/05 01:10:01;;;;;;;16.07;13.03;;;;;;;13.56;86.06;101189.81;670917;29;1371;-84
2021/09/05 01:10:24;;;;;;;17.02;13.18;;;;;;;13.60;85.56;101178.38;674908;29;4585;-84
2021/09/05 01:10:45;;;;;;;17.10;13.38;;;;;;;13.60;86.26;101183.63;678759;29;2174;-83
2021/09/05 01:11:07;;;;;;;17.73;13.60;;;;;;;13.57;86.19;101186.31;678917;29;1824;-83
2021/09/05 01:11:32;;;;;;;16.98;13.23;;;;;;;13.61;85.36;101177.50;680774;29;1408;-84
2021/09/05 01:11:52;;;;;;;16.05;12.80;;;;;;;13.67;85.24;101186.22;679088;29;1434;-84
2021/09/05 01:12:13;;;;;;;17.43;12.93;;;;;;;13.73;84.95;101194.03;680309;29;1305;-84
2021/09/05 01:12:34;;;;;;;17.13;13.02;;;;;;;13.78;85.20;101187.00;680513;29;1534;-84
2021/09/05 01:12:57;;;;;;;16.77;13.70;;;;;;;13.77;85.44;101183.47;676267;29;1355;-84
2021/09/05 01:13:17;;;;;;;17.80;13.38;;;;;;;13.69;86.19;101179.19;676227;29;4423;-83
2021/09/05 01:13:38;;;;;;;17.00;13.97;;;;;;;13.67;85.79;101186.22;678494;29;1794;-84
2021/09/05 01:14:00;;;;;;;17.27;14.20;;;;;;;13.67;85.33;101183.59;677791;29;4316;-84
2021/09/05 01:14:20;;;;;;;16.00;13.00;;;;;;;13.79;84.40;101186.97;676389;29;1547;-84
2021/09/05 01:14:41;;;;;;;15.80;12.87;;;;;;;13.88;84.26;101186.00;676406;29;1245;-84
2021/09/05 01:15:02;;;;;;;17.02;13.30;;;;;;;13.84;84.96;101186.91;675818;29;1407;-84
2021/09/05 01:15:22;;;;;;;16.90;13.45;;;;;;;13.73;85.69;101186.16;678975;29;1400;-84
2021/09/05 01:15:43;;;;;;;16.42;13.25;;;;;;;13.66;86.09;101184.47;681993;29;1016;-84
2021/09/05 01:16:28;;;;;;;15.90;13.27;;;;;;;13.63;85.47;101185.38;675908;29;2793;-84
2021/09/05 01:16:58;;;;;;;16.63;13.43;;;;;;;13.61;85.54;101189.78;681215;29;4955;-83
2021/09/05 01:17:46;;;;;;;16.00;12.93;;;;;;;13.84;84.68;101181.66;675982;29;1264;-83
2021/09/05 01:18:41;;;;;;;16.60;13.23;;;;;;;13.78;85.20;101179.13;677603;29;2494;-83
2021/09/05 01:19:34;;;;;;;17.08;13.80;;;;;;;13.61;86.20;101180.13;678021;29;4960;-84
2021/09/05 01:20:13;;;;;;;16.65;13.75;;;;;;;13.55;86.09;101188.06;678436;29;1450;-84
2021/09/05 01:20:43;;;;;;;16.50;13.27;;;;;;;13.52;86.34;101185.47;680312;29;1560;-84
2021/09/05 01:21:22;;;;;;;16.13;13.48;;;;;;;13.46;86.57;101180.28;680780;29;1411;-84
2021/09/05 01:22:23;;;;;;;16.38;13.40;;;;;;;13.39;86.87;101186.47;679371;28;4461;-84
2021/09/05 01:23:02;;;;;;;16.60;12.73;;;;;;;13.51;86.02;101186.34;680808;29;1272;-84
2021/09/05 01:23:42;;;;;;;17.60;12.75;;;;;;;13.70;84.95;101181.81;681030;29;1194;-84
2021/09/05 01:24:23;;;;;;;18.60;13.80;;;;;;;13.50;86.60;101179.38;675982;29;1895;-83
2021/09/05 01:25:03;;;;;;;16.13;13.02;;;;;;;13.35;86.28;101183.00;676890;29;2177;-84
2021/09/05 01:25:53;;;;;;;16.67;13.00;;;;;;;13.58;85.41;101174.03;676707;29;5058;-84
2021/09/05 01:26:51;;;;;;;16.75;13.10;;;;;;;13.58;85.89;101174.91;681758;28;1094;-84
2021/09/05 01:27:29;;;;;;;16.60;13.60;;;;;;;13.41;86.93;101189.94;680196;29;1706;-84
2021/09/05 01:28:19;;;;;;;16.52;13.07;;;;;;;13.60;84.83;101181.00;679937;29;4409;-84
2021/09/05 01:28:59;;;;;;;17.38;13.10;;;;;;;13.67;85.26;101173.09;680898;29;1185;-84
2021/09/05 01:29:38;;;;;;;17.17;13.40;;;;;;;13.40;86.75;101181.22;682820;28;1381;-84
2021/09/05 01:30:22;;;;;;;17.90;13.63;;;;;;;13.26;87.61;101183.00;681763;28;1320;-84
2021/09/05 01:31:08;;;;;;;17.10;13.93;;;;;;;13.13;87.55;101179.63;680016;28;1646;-84
2021/09/05 01:31:59;;;;;;;18.40;14.25;;;;;;;13.42;85.65;101182.03;681612;28;4949;-84
2021/09/05 01:32:37;;;;;;;16.75;13.43;;;;;;;13.47;85.78;101182.00;682631;28;1429;-84
2021/09/05 01:33:16;;;;;;;18.17;13.88;;;;;;;13.27;87.50;101177.75;680780;28;2702;-84
2021/09/05 01:34:14;;;;;;;17.85;13.60;;;;;;;13.38;85.99;101187.34;679175;28;4403;-83
2021/09/05 01:35:02;;;;;;;15.68;12.68;;;;;;;13.53;85.45;101175.84;682140;28;1557;-84
2021/09/05 01:35:41;;;;;;;16.80;13.95;;;;;;;13.29;87.12;101185.59;683736;28;2234;-84
2021/09/05 01:36:07;;;;;;;17.85;13.70;;;;;;;13.25;86.24;101184.78;681773;28;3508;-84
2021/09/05 01:36:48;;;;;;;16.77;13.25;;;;;;;13.28;86.88;101184.75;677099;29;1434;-84
2021/09/05 01:37:31;;;;;;;18.23;13.68;;;;;;;13.13;88.16;101210.25;666817;29;4915;-83
2021/09/05 01:38:26;;;;;;;17.63;13.95;;;;;;;13.04;87.76;101198.03;680105;28;1107;-83
2021/09/05 01:39:22;;;;;;;17.23;13.60;;;;;;;13.04;87.78;101196.31;680251;29;1457;-84
2021/09/05 01:39:48;;;;;;;17.52;14.00;;;;;;;13.00;88.05;101188.44;680526;29;1848;-84
2021/09/05 01:40:31;;;;;;;17.60;13.57;;;;;;;12.96;87.80;101208.59;679820;28;4958;-84
2021/09/05 01:41:11;;;;;;;17.17;13.25;;;;;;;13.14;87.45;101191.88;680932;29;1412;-84
2021/09/05 01:42:03;;;;;;;17.45;13.15;;;;;;;13.28;86.27;101205.75;680878;28;1597;-84
2021/09/05 01:42:46;;;;;;;16.35;13.38;;;;;;;13.29;86.28;101194.38;681190;28;1272;-83
2021/09/05 01:43:36;;;;;;;17.23;13.38;;;;;;;13.29;86.60;101186.50;683062;28;4947;-84
2021/09/05 01:44:23;;;;;;;17.70;13.73;;;;;;;13.25;86.50;101195.28;680463;28;2277;-84
2021/09/05 01:45:02;;;;;;;17.40;13.45;;;;;;;13.28;86.33;101192.63;680602;29;3862;-83
2021/09/05 01:45:41;;;;;;;17.58;13.85;;;;;;;13.21;87.39;101190.94;681691;29;1615;-84
2021/09/05 01:46:24;;;;;;;17.73;13.70;;;;;;;13.15;87.47;101196.22;674793;29;4353;-83
2021/09/05 01:47:23;;;;;;;17.25;14.00;;;;;;;13.20;86.64;101190.94;680167;28;3876;-83
2021/09/05 01:48:02;;;;;;;16.92;13.18;;;;;;;13.24;87.05;101188.28;680747;29;2007;-83
2021/09/05 01:48:50;;;;;;;19.23;14.35;;;;;;;13.10;88.14;101195.41;679470;29;1636;-84
2021/09/05 01:49:31;;;;;;;17.63;13.50;;;;;;;13.14;87.36;101188.34;676696;28;4972;-83
2021/09/05 01:50:13;;;;;;;15.73;13.02;;;;;;;13.28;86.09;101186.53;673903;29;2665;-83
2021/09/05 01:50:52;;;;;;;15.80;12.90;;;;;;;13.26;87.00;101183.00;673675;29;1462;-84
2021/09/05 01:51:36;;;;;;;16.02;13.35;;;;;;;13.23;86.55;101183.91;671641;29;1406;-84
2021/09/05 01:52:15;;;;;;;18.67;13.10;;;;;;;13.33;86.30;101178.59;675057;29;4358;-84
2021/09/05 01:52:55;;;;;;;16.88;12.73;;;;;;;13.28;86.49;101178.66;677570;29;3388;-83
2021/09/05 01:53:36;;;;;;;18.42;14.25;;;;;;;13.09;87.65;101177.91;678139;29;1246;-84
2021/09/05 01:54:15;;;;;;;17.52;13.57;;;;;;;13.06;87.12;101184.03;681383;29;1635;-83
2021/09/05 01:54:56;;;;;;;18.23;13.38;;;;;;;13.09;87.34;101183.16;680965;28;1798;-84
2021/09/05 01:55:36;;;;;;;17.65;14.00;;;;;;;12.98;88.57;101182.34;679591;29;4960;-83
2021/09/05 01:56:16;;;;;;;17.88;13.98;;;;;;;13.02;87.02;101184.06;680027;29;1172;-84
2021/09/05 01:57:12;;;;;;;16.58;12.77;;;;;;;13.14;87.63;101189.25;681053;28;1750;-83
2021/09/05 01:58:01;;;;;;;15.93;13.20;;;;;;;12.98;87.56;101187.59;675503;29;1249;-84
2021/09/05 01:58:40;;;;;;;16.25;13.43;;;;;;;12.97;88.42;101191.09;674103;29;4937;-84
2021/09/05 01:59:21;;;;;;;17.35;13.13;;;;;;;13.06;87.18;101186.66;674433;29;1294;-84
2021/09/05 02:00:14;;;;;;;17.05;13.45;;;;;;;13.17;86.74;101190.97;679379;29;1462;-84
2021/09/05 02:00:47;;;;;;;17.42;13.20;;;;;;;13.04;87.64;101190.16;678902;29;1328;-82
2021/09/05 02:01:20;;;;;;;16.63;13.73;;;;;;;12.88;87.77;101186.78;676850;29;4409;-83
2021/09/05 02:02:01;;;;;;;19.02;13.50;;;;;;;12.88;87.73;101192.03;676807;29;1713;-83
2021/09/05 02:02:44;;;;;;;16.00;12.80;;;;;;;12.97;87.70;101194.59;679584;29;1672;-84
2021/09/05 02:03:43;;;;;;;19.90;14.10;;;;;;;12.83;89.10;101192.03;676497;29;1935;-84
2021/09/05 02:04:21;;;;;;;18.42;13.98;;;;;;;12.79;89.28;101190.31;678413;28;4397;-84